logo
Search for airport 
image banner adimage banner adimage banner ad
image banner ad

EYPN - Panevezys

Located in Panevezys, Lithuania

ICAO - EYPN, IATA - PNV

Data provided by Airmate  

General information

Coordinates: N55°42'32" E24°20'43"
Elevation is 177 feet MSL.
Magnetic variation is 7° East
View others Airports in Panevežys County

Operational data

Special qualification required
Current time UTC:
Current local time:
METAR: EYSA 282020Z 08002KT CAVOK 18/12 Q1017 NOSIG
TAF: TAF EYSA 282000Z 2821/2906 VRB05KT 9000 NSC TEMPO 2900/2904 5000 MIFG BR
View NOTAMs / SUP AIP / TFR affecting this airport [VIEW]
Communications frequencies: [VIEW]

Runways:

RWY identifierQFULength (ft)Width (ft)SurfaceLDA (ft)
0231°1608328GRASS
20211°1608328GRASS
16163°1772197GRASS
34343°1772197GRASS

Airport contact information

Address: Panevezys Lithuania

Other aviation service providers

Aviation club (not for profit)

Panevėžio Aeroklubas

Panevėžio Aeroklubas
panevezys.aeroclub@gmail.com+37068115836
+37068115836

Satellite view of EYPN